Time;durP1;ratioP1;P1;durP2;ratioP2;P2;SDS_P1;SDS_P2;PMS_P1;PMS_P2;Temp;Humidity;BMP_temperature;BMP_pressure;BME280_temperature;BME280_humidity;BME280_pressure;Samples;Min_cycle;Max_cycle;Signal;HPM_P1;HPM_P2
2022/10/23 00:00:09;;;;;;;20.05;9.63;;;;;;;12.47;100.00;101321.06;10375959;28;20100;-69
2022/10/23 00:05:09;;;;;;;14.50;8.13;;;;;;;12.47;100.00;101303.91;10378100;28;20107;-69
2022/10/23 00:10:10;;;;;;;16.02;10.10;;;;;;;12.49;100.00;101305.41;10358748;28;20041;-68
2022/10/23 00:15:11;;;;;;;11.10;9.07;;;;;;;12.52;100.00;101312.31;10376920;28;20034;-68
2022/10/23 00:20:11;;;;;;;17.38;10.60;;;;;;;12.51;100.00;101307.94;10358828;28;20381;-71
2022/10/23 00:25:12;;;;;;;19.33;10.32;;;;;;;12.51;100.00;101302.50;10391201;28;20038;-68
2022/10/23 00:30:13;;;;;;;21.42;9.20;;;;;;;12.52;100.00;101296.03;10359725;28;20399;-68
2022/10/23 00:35:13;;;;;;;16.52;9.60;;;;;;;12.54;100.00;101312.97;10359107;28;20037;-68
2022/10/23 00:40:13;;;;;;;20.42;10.07;;;;;;;12.50;100.00;101298.09;10375415;28;20096;-68
2022/10/23 00:45:24;;;;;;;20.65;10.98;;;;;;;12.50;100.00;101298.91;10375295;28;20120;-68
2022/10/23 00:50:25;;;;;;;12.98;9.57;;;;;;;12.48;100.00;101298.31;10375108;28;20037;-68
2022/10/23 00:55:25;;;;;;;17.13;9.30;;;;;;;12.45;100.00;101290.56;10357602;28;20092;-73
2022/10/23 01:00:39;;;;;;;14.38;10.40;;;;;;;12.45;100.00;101289.72;10374250;28;20125;-74
2022/10/23 01:06:04;;;;;;;16.65;10.27;;;;;;;12.43;100.00;101292.63;10376713;28;20421;-73
2022/10/23 01:11:07;;;;;;;17.58;10.85;;;;;;;12.44;100.00;101272.56;10387839;28;20030;-74
2022/10/23 01:16:17;;;;;;;16.42;11.02;;;;;;;12.45;100.00;101276.97;10373642;28;20462;-74
2022/10/23 01:21:27;;;;;;;19.52;9.88;;;;;;;12.40;100.00;101276.72;10389896;28;20030;-73
2022/10/23 01:26:53;;;;;;;19.90;11.68;;;;;;;12.36;100.00;101271.91;10360111;28;20030;-75
2022/10/23 01:32:14;;;;;;;19.40;10.75;;;;;;;12.31;100.00;101270.59;10376007;28;20038;-75
2022/10/23 01:37:20;;;;;;;12.13;9.05;;;;;;;12.32;100.00;101269.59;10375314;28;20060;-74
2022/10/23 01:42:23;;;;;;;11.77;9.93;;;;;;;12.31;100.00;101251.59;10382630;28;20057;-74
2022/10/23 01:47:26;;;;;;;18.17;10.13;;;;;;;12.31;100.00;101245.34;10382030;28;20109;-74
2022/10/23 01:52:26;;;;;;;16.58;10.52;;;;;;;12.30;100.00;101240.94;10398582;28;20034;-74
2022/10/23 01:57:28;;;;;;;17.15;9.02;;;;;;;12.25;100.00;101244.28;10384421;28;20113;-74
2022/10/23 02:02:28;;;;;;;20.70;9.98;;;;;;;12.19;100.00;101242.38;10381160;28;20474;-74
2022/10/23 02:07:29;;;;;;;17.08;10.02;;;;;;;12.19;100.00;101236.94;10366366;28;20041;-74
2022/10/23 02:12:41;;;;;;;24.60;10.43;;;;;;;12.12;100.00;101227.06;10380279;28;20128;-73
2022/10/23 02:18:32;;;;;;;11.65;10.27;;;;;;;12.08;100.00;101232.03;10397214;28;20084;-74
2022/10/23 02:23:44;;;;;;;14.88;10.90;;;;;;;12.07;100.00;101220.34;10380867;28;20038;-74
2022/10/23 02:28:50;;;;;;;14.18;9.55;;;;;;;12.03;100.00;101210.09;10381643;28;20040;-74
2022/10/23 02:33:50;;;;;;;14.65;10.63;;;;;;;11.97;100.00;101224.47;10364981;28;20029;-75
2022/10/23 02:38:51;;;;;;;19.23;9.40;;;;;;;11.90;100.00;101218.13;10380630;28;20029;-74
2022/10/23 02:44:09;;;;;;;20.42;11.00;;;;;;;11.89;100.00;101203.75;10381516;28;20046;-74
2022/10/23 02:49:11;;;;;;;17.60;11.85;;;;;;;11.90;100.00;101188.28;10396058;28;20377;-74
2022/10/23 02:54:24;;;;;;;25.23;9.48;;;;;;;11.92;100.00;101175.38;10396000;28;20022;-74
2022/10/23 03:00:05;;;;;;;16.23;10.45;;;;;;;11.93;100.00;101160.75;10379870;28;20108;-74
2022/10/23 03:05:08;;;;;;;14.82;10.82;;;;;;;11.98;100.00;101155.56;10362588;28;20413;-74
2022/10/23 03:10:09;;;;;;;24.38;10.23;;;;;;;12.05;100.00;101154.56;10378818;28;20033;-75
2022/10/23 03:15:10;;;;;;;15.77;10.38;;;;;;;12.12;100.00;101151.03;10378459;28;20029;-75
2022/10/23 03:20:11;;;;;;;12.35;10.93;;;;;;;12.09;100.00;101149.56;10378480;28;20133;-74
2022/10/23 03:25:11;;;;;;;14.60;11.23;;;;;;;12.10;100.00;101154.81;10378104;28;20030;-74
2022/10/23 03:30:12;;;;;;;21.50;9.32;;;;;;;12.09;100.00;101138.69;10379657;28;20425;-74
2022/10/23 03:35:12;;;;;;;19.33;11.95;;;;;;;12.07;100.00;101130.78;10379617;28;20176;-75
2022/10/23 03:40:13;;;;;;;14.07;11.15;;;;;;;12.05;100.00;101118.44;10379130;28;20033;-74
2022/10/23 03:45:13;;;;;;;19.85;9.95;;;;;;;12.05;100.00;101110.28;10377101;28;20037;-75
2022/10/23 03:50:13;;;;;;;19.17;10.38;;;;;;;12.03;100.00;101106.97;10377697;28;20030;-74
2022/10/23 03:55:15;;;;;;;17.65;11.40;;;;;;;11.98;100.00;101093.97;10378435;28;20087;-74
2022/10/23 04:00:16;;;;;;;13.48;11.40;;;;;;;11.98;100.00;101085.00;10376578;28;20026;-74
2022/10/23 04:05:16;;;;;;;20.20;12.07;;;;;;;11.95;100.00;101088.97;10379397;28;20382;-74
2022/10/23 04:10:16;;;;;;;19.65;10.93;;;;;;;11.92;100.00;101088.53;10359828;28;20494;-75
2022/10/23 04:15:17;;;;;;;21.20;11.80;;;;;;;11.89;100.00;101072.66;10359787;28;20064;-74
2022/10/23 04:20:17;;;;;;;17.33;11.88;;;;;;;11.87;100.00;101064.72;10378413;28;20057;-74
2022/10/23 04:25:18;;;;;;;23.73;11.00;;;;;;;11.86;100.00;101060.31;10377520;28;20042;-75
2022/10/23 04:30:18;;;;;;;16.95;10.50;;;;;;;11.89;100.00;101056.38;10360657;28;20125;-74
2022/10/23 04:35:19;;;;;;;18.88;11.02;;;;;;;11.94;100.00;101056.59;10377385;28;20042;-74
2022/10/23 04:40:19;;;;;;;17.50;12.02;;;;;;;11.93;100.00;101047.59;10377041;28;20052;-74
2022/10/23 04:45:19;;;;;;;20.15;10.10;;;;;;;11.97;100.00;101051.59;10376306;28;20049;-75
2022/10/23 04:50:20;;;;;;;15.18;9.90;;;;;;;11.98;100.00;101056.00;10376656;28;20459;-75
2022/10/23 04:55:20;;;;;;;11.15;9.93;;;;;;;12.00;100.00;101053.09;10374516;28;20038;-74
2022/10/23 05:00:21;;;;;;;11.50;8.57;;;;;;;12.01;100.00;101049.31;10375318;28;20030;-74
2022/10/23 05:05:21;;;;;;;14.48;8.75;;;;;;;12.06;100.00;101042.25;10374966;28;20037;-74
2022/10/23 05:10:21;;;;;;;14.40;8.52;;;;;;;12.10;100.00;101034.53;10375420;28;20033;-74
2022/10/23 05:15:22;;;;;;;14.57;7.95;;;;;;;12.16;100.00;101031.00;10373916;28;20046;-73
2022/10/23 05:20:24;;;;;;;24.40;8.45;;;;;;;12.16;100.00;101036.44;10373169;28;20054;-74
2022/10/23 05:25:24;;;;;;;11.60;8.75;;;;;;;12.20;100.00;101034.97;10374813;28;20034;-74
2022/10/23 05:30:25;;;;;;;8.50;7.75;;;;;;;12.21;100.00;101039.34;10374930;28;20052;-74
2022/10/23 05:35:25;;;;;;;10.13;8.43;;;;;;;12.21;100.00;101038.53;10373138;28;20033;-74
2022/10/23 05:40:26;;;;;;;14.02;9.13;;;;;;;12.19;100.00;101030.59;10373028;28;20448;-75
2022/10/23 05:45:26;;;;;;;11.75;7.90;;;;;;;12.16;100.00;101025.56;10373732;28;20042;-74
2022/10/23 05:50:26;;;;;;;15.07;6.85;;;;;;;12.16;100.00;101019.31;10374943;28;20049;-74
2022/10/23 05:55:27;;;;;;;12.57;6.35;;;;;;;12.16;100.00;101008.44;10374004;28;20084;-74
2022/10/23 06:00:27;;;;;;;13.55;6.82;;;;;;;12.12;100.00;101004.44;10373756;28;20033;-74
2022/10/23 06:05:28;;;;;;;15.40;7.90;;;;;;;12.13;100.00;100996.13;10356831;28;20032;-75
2022/10/23 06:10:29;;;;;;;15.05;7.82;;;;;;;12.15;100.00;100990.47;10356765;28;20030;-74
2022/10/23 06:15:30;;;;;;;15.05;7.53;;;;;;;12.14;100.00;100997.78;10373329;28;20474;-74
2022/10/23 06:20:30;;;;;;;7.03;5.35;;;;;;;12.14;100.00;100976.06;10374006;28;20046;-75
2022/10/23 06:25:31;;;;;;;11.90;6.90;;;;;;;12.18;100.00;100973.78;10360712;28;20053;-74
2022/10/23 06:30:31;;;;;;;10.40;5.82;;;;;;;12.18;100.00;100969.16;10380352;28;20117;-74
2022/10/23 06:35:32;;;;;;;8.75;6.82;;;;;;;12.19;100.00;100961.84;10380493;28;20108;-74
2022/10/23 06:40:32;;;;;;;22.58;7.85;;;;;;;12.25;100.00;100956.47;10381840;28;20030;-74
2022/10/23 06:45:33;;;;;;;16.02;7.57;;;;;;;12.23;100.00;100938.72;10380679;28;20038;-74
2022/10/23 06:50:33;;;;;;;12.88;7.88;;;;;;;12.28;100.00;100939.75;10364820;28;20117;-73
2022/10/23 06:55:33;;;;;;;11.38;7.85;;;;;;;12.38;100.00;100950.22;10380987;28;20034;-74
2022/10/23 07:00:34;;;;;;;16.02;6.90;;;;;;;12.43;100.00;100952.28;10379107;28;20052;-75
2022/10/23 07:05:34;;;;;;;13.05;7.07;;;;;;;12.50;100.00;100943.09;10381053;28;20038;-75
2022/10/23 07:10:34;;;;;;;15.70;6.97;;;;;;;12.53;100.00;100918.22;10381311;28;20113;-74
2022/10/23 07:15:35;;;;;;;6.72;6.03;;;;;;;12.59;100.00;100915.72;10316225;28;20054;-74
2022/10/23 07:20:36;;;;;;;10.95;7.78;;;;;;;12.71;100.00;100935.78;10354213;28;20062;-76
2022/10/23 07:25:36;;;;;;;10.35;7.43;;;;;;;12.78;100.00;100929.28;10379957;28;20500;-75
2022/10/23 07:30:37;;;;;;;10.93;6.97;;;;;;;12.84;100.00;100926.78;10361441;28;20124;-75
2022/10/23 07:35:40;;;;;;;7.63;6.18;;;;;;;12.89;100.00;100916.94;10379012;28;20433;-77
2022/10/23 07:40:40;;;;;;;9.40;7.75;;;;;;;12.98;100.00;100921.06;10377478;28;20428;-76
2022/10/23 07:45:41;;;;;;;16.25;7.90;;;;;;;13.01;100.00;100907.06;10378722;28;20038;-77
2022/10/23 07:50:41;;;;;;;8.25;7.18;;;;;;;13.10;100.00;100904.13;10376827;28;20037;-76
2022/10/23 07:55:42;;;;;;;11.25;7.25;;;;;;;13.16;100.00;100905.97;10378497;28;20053;-76
2022/10/23 08:00:44;;;;;;;13.85;6.93;;;;;;;13.21;100.00;100898.84;10378449;28;20025;-75
2022/10/23 08:05:44;;;;;;;12.93;6.28;;;;;;;13.25;100.00;100902.84;10376916;28;20089;-74
2022/10/23 08:10:45;;;;;;;13.07;6.53;;;;;;;13.29;100.00;100895.09;10377581;28;20030;-73
2022/10/23 08:15:46;;;;;;;14.35;8.65;;;;;;;13.33;100.00;100884.59;10376644;28;20033;-73
2022/10/23 08:20:47;;;;;;;7.55;6.32;;;;;;;13.32;100.00;100875.63;10375693;28;20062;-73
2022/10/23 08:25:47;;;;;;;14.98;7.22;;;;;;;13.37;100.00;100869.50;10375864;28;20492;-74
2022/10/23 08:30:48;;;;;;;10.98;6.45;;;;;;;13.41;100.00;100868.06;10375681;28;20069;-74
2022/10/23 08:35:48;;;;;;;11.32;6.60;;;;;;;13.46;100.00;100852.75;10376678;28;20069;-75
2022/10/23 08:40:49;;;;;;;7.25;6.35;;;;;;;13.51;100.00;100854.81;10375272;28;20038;-76
2022/10/23 08:45:54;;;;;;;9.30;6.82;;;;;;;13.63;100.00;100854.97;10358546;28;20433;-73
2022/10/23 08:51:32;;;;;;;9.18;6.13;;;;;;;13.68;100.00;100855.94;10359675;28;20040;-74
2022/10/23 08:56:34;;;;;;;13.00;6.60;;;;;;;13.80;100.00;100852.53;10376448;28;20057;-75
2022/10/23 09:01:39;;;;;;;8.73;6.18;;;;;;;13.92;100.00;100845.34;10357826;28;20034;-74
2022/10/23 09:06:47;;;;;;;10.10;5.75;;;;;;;14.03;100.00;100846.50;10359379;28;20044;-74
2022/10/23 09:12:10;;;;;;;6.93;6.30;;;;;;;14.07;100.00;100829.50;10375298;28;20476;-74
2022/10/23 09:17:26;;;;;;;9.68;6.13;;;;;;;14.18;100.00;100834.22;10359820;28;20049;-74
2022/10/23 09:22:27;;;;;;;8.95;6.65;;;;;;;14.28;100.00;100817.38;10375348;28;20052;-74
2022/10/23 09:27:27;;;;;;;7.18;5.03;;;;;;;14.41;100.00;100811.78;10358110;28;20038;-74
2022/10/23 09:32:46;;;;;;;8.38;6.82;;;;;;;14.50;100.00;100803.31;10376420;28;20045;-74
2022/10/23 09:37:47;;;;;;;9.98;5.93;;;;;;;14.50;100.00;100801.44;10374603;28;20022;-74
2022/10/23 09:42:50;;;;;;;9.18;6.15;;;;;;;14.53;100.00;100795.56;10374603;28;20034;-74
2022/10/23 09:48:01;;;;;;;8.73;5.82;;;;;;;14.41;100.00;100787.25;10373453;28;20033;-74
2022/10/23 09:53:02;;;;;;;9.75;6.32;;;;;;;14.33;100.00;100773.13;10359728;28;20030;-75
2022/10/23 09:58:02;;;;;;;6.72;5.53;;;;;;;14.37;100.00;100779.78;10374769;28;20061;-74
2022/10/23 10:03:04;;;;;;;10.85;5.65;;;;;;;14.50;100.00;100771.47;10382810;28;20405;-74
2022/10/23 10:08:07;;;;;;;5.63;4.88;;;;;;;14.55;100.00;100768.94;10382357;28;20088;-74
2022/10/23 10:13:32;;;;;;;10.90;6.10;;;;;;;14.64;100.00;100755.81;10381532;28;20034;-74
2022/10/23 10:18:40;;;;;;;7.20;5.72;;;;;;;14.72;100.00;100744.63;10381525;28;20049;-74
2022/10/23 10:24:09;;;;;;;8.52;6.75;;;;;;;14.84;100.00;100733.78;10364367;28;20084;-74
2022/10/23 10:29:36;;;;;;;7.15;5.65;;;;;;;14.94;100.00;100708.69;10379016;28;20050;-74
2022/10/23 10:35:29;;;;;;;6.32;4.15;;;;;;;14.95;100.00;100697.53;10371838;28;20073;-74
2022/10/23 10:40:45;;;;;;;12.25;6.45;;;;;;;15.07;100.00;100682.06;10363424;28;20490;-74
2022/10/23 10:45:47;;;;;;;11.87;5.87;;;;;;;15.14;100.00;100662.84;10379376;28;20354;-74
2022/10/23 10:51:00;;;;;;;5.72;4.97;;;;;;;15.23;100.00;100638.81;10379394;28;20532;-74
2022/10/23 10:56:01;;;;;;;11.15;4.68;;;;;;;15.43;100.00;100622.94;10379285;28;20037;-74
2022/10/23 11:01:04;;;;;;;4.93;4.50;;;;;;;15.67;100.00;100615.63;10378918;28;20033;-75
2022/10/23 11:06:05;;;;;;;12.85;4.15;;;;;;;15.92;100.00;100636.34;10362742;28;20434;-74
2022/10/23 11:11:10;;;;;;;5.05;4.63;;;;;;;16.23;100.00;100635.13;10361096;28;20458;-74
2022/10/23 11:16:17;;;;;;;7.85;5.00;;;;;;;16.49;100.00;100611.84;10378670;28;20425;-74
2022/10/23 11:21:23;;;;;;;9.05;4.05;;;;;;;16.67;100.00;100597.16;10345991;28;20061;-74
2022/10/23 11:26:42;;;;;;;3.58;3.15;;;;;;;16.96;100.00;100571.47;10379075;28;20050;-74
2022/10/23 11:32:12;;;;;;;6.82;4.88;;;;;;;17.25;100.00;100593.28;10380014;28;20042;-74
2022/10/23 11:37:17;;;;;;;11.07;4.13;;;;;;;17.28;100.00;100575.53;10378118;28;20171;-74
2022/10/23 11:42:33;;;;;;;9.43;3.70;;;;;;;17.19;100.00;100558.69;10361084;28;20030;-73
2022/10/23 11:47:37;;;;;;;10.97;3.07;;;;;;;17.23;100.00;100559.88;10377409;28;20025;-74
2022/10/23 11:52:54;;;;;;;4.55;4.15;;;;;;;17.33;100.00;100562.75;10379149;28;20060;-74
2022/10/23 11:58:04;;;;;;;4.88;3.60;;;;;;;17.38;100.00;100549.13;10376660;28;20072;-76
2022/10/23 12:03:04;;;;;;;8.05;3.67;;;;;;;17.42;100.00;100547.56;10377921;28;20132;-74
2022/10/23 12:08:06;;;;;;;9.25;3.25;;;;;;;17.53;100.00;100543.06;10377817;28;20463;-74
2022/10/23 12:13:31;;;;;;;6.38;3.70;;;;;;;17.70;100.00;100534.78;10376514;28;20359;-75
2022/10/23 12:18:31;;;;;;;6.25;2.85;;;;;;;17.97;100.00;100532.16;10376009;28;20068;-75
2022/10/23 12:23:34;;;;;;;9.50;3.60;;;;;;;18.19;100.00;100531.28;10376539;28;20038;-74
2022/10/23 12:28:47;;;;;;;3.63;3.42;;;;;;;18.22;98.65;100528.03;10377497;28;20112;-73
2022/10/23 12:33:53;;;;;;;2.65;2.40;;;;;;;18.25;99.68;100517.41;10376676;28;20033;-74
2022/10/23 12:38:57;;;;;;;4.32;3.10;;;;;;;18.44;100.00;100503.31;10375373;28;20026;-74
2022/10/23 12:43:59;;;;;;;2.15;2.00;;;;;;;18.47;98.16;100487.19;10359138;28;20196;-74
2022/10/23 12:49:00;;;;;;;5.07;2.45;;;;;;;18.57;99.86;100476.34;10374975;28;20063;-73
2022/10/23 12:54:01;;;;;;;8.40;3.75;;;;;;;18.65;99.67;100466.78;10374762;28;20046;-74
2022/10/23 12:59:01;;;;;;;3.33;3.03;;;;;;;18.88;98.63;100442.84;10373796;28;20033;-74
2022/10/23 13:04:20;;;;;;;9.02;3.10;;;;;;;19.00;98.04;100440.72;10375722;28;20113;-74
2022/10/23 13:09:27;;;;;;;11.57;4.07;;;;;;;18.96;97.38;100436.88;10375057;28;20034;-74
2022/10/23 13:14:36;;;;;;;4.90;3.88;;;;;;;19.00;97.22;100419.59;10374942;28;20068;-74
2022/10/23 13:19:36;;;;;;;6.55;4.45;;;;;;;19.04;98.02;100422.66;10375189;28;20135;-74
2022/10/23 13:24:39;;;;;;;5.80;3.17;;;;;;;18.97;97.98;100400.09;10375044;28;20132;-77
2022/10/23 13:29:39;;;;;;;5.45;3.58;;;;;;;18.95;96.26;100388.56;10340922;28;20030;-76
2022/10/23 13:34:40;;;;;;;11.68;4.05;;;;;;;18.94;96.92;100378.69;10341938;28;20113;-75
2022/10/23 13:39:40;;;;;;;3.15;2.85;;;;;;;19.18;95.31;100388.16;10341214;28;20458;-75
2022/10/23 13:44:41;;;;;;;4.90;3.25;;;;;;;19.22;97.78;100386.50;10374828;28;20129;-75
2022/10/23 13:49:41;;;;;;;4.05;3.63;;;;;;;19.50;93.73;100356.97;10357990;28;20038;-75
2022/10/23 13:54:42;;;;;;;3.30;3.08;;;;;;;19.49;94.96;100347.06;10374892;28;20573;-75
2022/10/23 13:59:42;;;;;;;3.08;2.88;;;;;;;19.37;97.57;100352.81;10386407;28;20034;-76
2022/10/23 14:04:43;;;;;;;5.93;4.03;;;;;;;19.16;96.23;100340.91;10349911;28;20033;-74
2022/10/23 14:09:43;;;;;;;3.70;3.40;;;;;;;19.34;97.50;100358.03;10378848;28;20045;-75
2022/10/23 14:14:44;;;;;;;5.53;3.67;;;;;;;19.71;93.96;100330.41;10374498;28;20065;-74
2022/10/23 14:19:44;;;;;;;3.65;3.35;;;;;;;19.64;93.55;100327.91;10374273;28;20054;-76
2022/10/23 14:24:45;;;;;;;4.05;2.67;;;;;;;19.76;94.55;100329.59;10374360;28;20367;-77
2022/10/23 14:29:45;;;;;;;9.32;3.50;;;;;;;19.43;93.71;100331.66;10374785;28;20081;-76
2022/10/23 14:34:49;;;;;;;5.55;3.65;;;;;;;19.23;94.11;100335.19;10374306;28;20343;-77
2022/10/23 14:39:49;;;;;;;6.47;4.05;;;;;;;19.03;95.82;100335.94;10372833;28;20092;-77
2022/10/23 14:44:49;;;;;;;10.05;2.60;;;;;;;18.83;96.79;100303.75;10374575;28;20395;-74
2022/10/23 14:49:50;;;;;;;5.45;3.30;;;;;;;18.68;98.34;100295.41;10381603;28;20057;-74
2022/10/23 14:54:52;;;;;;;4.43;2.60;;;;;;;18.55;98.64;100313.97;10363809;28;20109;-74
2022/10/23 14:59:52;;;;;;;3.78;3.38;;;;;;;18.48;99.23;100293.38;10380302;28;20034;-74
2022/10/23 15:04:53;;;;;;;6.72;3.33;;;;;;;18.46;99.91;100290.06;10380546;28;20080;-74
2022/10/23 15:09:54;;;;;;;3.28;2.85;;;;;;;18.39;100.00;100286.72;10379132;28;20069;-74
2022/10/23 15:14:54;;;;;;;5.38;2.17;;;;;;;18.33;100.00;100269.41;10378954;28;20077;-74
2022/10/23 15:19:55;;;;;;;3.53;2.95;;;;;;;18.27;100.00;100257.59;10379963;28;20085;-74
2022/10/23 15:24:56;;;;;;;14.57;3.60;;;;;;;18.27;100.00;100263.06;10379338;28;20042;-74
2022/10/23 15:29:56;;;;;;;4.30;3.38;;;;;;;18.17;100.00;100246.56;10379030;28;20120;-74
2022/10/23 15:34:58;;;;;;;2.78;2.40;;;;;;;18.17;100.00;100249.31;10379494;28;20425;-74
2022/10/23 15:39:59;;;;;;;5.32;2.53;;;;;;;18.19;100.00;100247.13;10379424;28;20030;-74
2022/10/23 15:44:59;;;;;;;7.60;2.88;;;;;;;18.22;100.00;100257.56;10379478;28;20041;-74
2022/10/23 15:50:00;;;;;;;5.30;2.72;;;;;;;18.23;100.00;100252.91;10377711;28;20389;-74
2022/10/23 15:55:00;;;;;;;3.00;2.75;;;;;;;18.25;100.00;100240.59;10376770;28;20042;-74
2022/10/23 16:00:00;;;;;;;3.28;2.97;;;;;;;18.22;100.00;100232.91;10376864;28;20030;-74
2022/10/23 16:05:01;;;;;;;15.88;3.78;;;;;;;18.26;100.00;100233.19;10378895;28;20042;-74
2022/10/23 16:10:03;;;;;;;3.38;3.08;;;;;;;18.22;100.00;100227.44;10376401;28;20061;-74
2022/10/23 16:15:03;;;;;;;3.58;2.70;;;;;;;18.22;100.00;100232.91;10359969;28;20106;-74
2022/10/23 16:20:04;;;;;;;2.85;2.65;;;;;;;18.16;100.00;100233.13;10377146;28;20521;-74
2022/10/23 16:25:05;;;;;;;9.63;3.78;;;;;;;18.11;100.00;100234.75;10359225;28;20052;-74
2022/10/23 16:30:08;;;;;;;7.97;3.67;;;;;;;18.02;100.00;100217.13;10376580;28;20033;-74
2022/10/23 16:35:08;;;;;;;4.57;3.75;;;;;;;17.94;100.00;100220.38;10359083;28;20041;-74
2022/10/23 16:40:09;;;;;;;5.30;3.78;;;;;;;17.82;100.00;100201.38;10375943;28;20036;-74
2022/10/23 16:45:10;;;;;;;6.05;3.50;;;;;;;17.79;100.00;100207.38;10377447;28;20069;-74
2022/10/23 16:50:10;;;;;;;4.95;2.72;;;;;;;17.71;100.00;100199.63;10375716;28;20034;-74
2022/10/23 16:55:10;;;;;;;5.18;3.20;;;;;;;17.72;100.00;100190.31;10376817;28;20053;-74
2022/10/23 17:00:11;;;;;;;3.42;2.97;;;;;;;17.68;100.00;100183.75;10374737;28;20092;-74
2022/10/23 17:05:11;;;;;;;5.22;3.33;;;;;;;17.65;100.00;100171.38;10375793;28;20476;-74
2022/10/23 17:10:12;;;;;;;8.48;3.10;;;;;;;17.67;100.00;100169.19;10376241;28;20033;-74
2022/10/23 17:15:12;;;;;;;3.40;2.95;;;;;;;17.77;100.00;100182.19;10374725;28;20046;-74
2022/10/23 17:20:13;;;;;;;5.28;2.60;;;;;;;17.75;100.00;100195.28;10374933;28;20507;-74
2022/10/23 17:25:13;;;;;;;7.68;3.30;;;;;;;17.79;100.00;100193.69;10375603;28;20097;-74
2022/10/23 17:30:13;;;;;;;6.32;3.35;;;;;;;17.88;100.00;100188.56;10375496;28;20030;-74
2022/10/23 17:35:14;;;;;;;5.93;3.72;;;;;;;17.86;100.00;100194.28;10375614;28;20042;-74
2022/10/23 17:40:14;;;;;;;4.30;3.92;;;;;;;17.92;100.00;100164.19;10374843;28;20037;-74
2022/10/23 17:45:15;;;;;;;11.93;3.80;;;;;;;18.01;100.00;100163.44;10374111;28;20037;-74
2022/10/23 17:50:15;;;;;;;5.28;3.58;;;;;;;18.11;100.00;100168.97;10374581;28;20038;-74
2022/10/23 17:55:15;;;;;;;4.40;3.72;;;;;;;18.20;100.00;100163.00;10374475;28;20530;-73
2022/10/23 18:00:16;;;;;;;8.18;3.42;;;;;;;18.24;100.00;100136.72;10374866;28;20034;-74
2022/10/23 18:05:16;;;;;;;5.13;3.53;;;;;;;18.11;100.00;100140.75;10374876;28;20037;-74
2022/10/23 18:10:17;;;;;;;5.55;3.38;;;;;;;17.91;100.00;100155.16;10375336;28;20113;-75
2022/10/23 18:15:17;;;;;;;6.10;2.88;;;;;;;17.78;100.00;100205.75;10373944;28;20433;-75
2022/10/23 18:20:17;;;;;;;4.22;3.47;;;;;;;17.70;100.00;100217.13;10374971;28;20050;-77
2022/10/23 18:25:18;;;;;;;3.15;2.83;;;;;;;17.56;100.00;100216.75;10380656;28;20068;-80
2022/10/23 18:30:18;;;;;;;3.92;3.63;;;;;;;17.31;100.00;100173.56;10382915;28;20068;-81
2022/10/23 18:35:19;;;;;;;9.85;3.88;;;;;;;17.18;100.00;100223.22;10363801;28;20117;-79
2022/10/23 18:40:19;;;;;;;8.77;4.00;;;;;;;17.07;100.00;100226.94;10381925;28;20034;-79
2022/10/23 18:45:20;;;;;;;6.57;4.32;;;;;;;17.02;100.00;100267.94;10381354;28;20034;-80
2022/10/23 18:50:20;;;;;;;7.78;5.90;;;;;;;16.85;100.00;100318.03;10383429;28;20073;-80
2022/10/23 18:55:21;;;;;;;16.45;7.15;;;;;;;16.65;100.00;100350.53;10379997;28;20454;-82
2022/10/23 19:00:21;;;;;;;6.85;4.25;;;;;;;16.28;100.00;100362.00;10382025;28;20037;-82
2022/10/23 19:05:21;;;;;;;4.75;2.78;;;;;;;15.80;100.00;100306.84;10384632;28;20143;-81
2022/10/23 19:10:22;;;;;;;1.30;1.15;;;;;;;15.18;100.00;100249.47;10384071;28;20072;-82
2022/10/23 19:15:22;;;;;;;2.17;1.98;;;;;;;14.69;100.00;100200.00;10365531;28;20088;-81
2022/10/23 19:20:23;;;;;;;2.63;2.30;;;;;;;14.39;100.00;100197.44;10379267;28;20164;-81
2022/10/23 19:25:25;;;;;;;8.15;2.65;;;;;;;14.12;100.00;100221.63;10380308;28;20116;-81
2022/10/23 19:30:25;;;;;;;9.57;2.15;;;;;;;13.88;100.00;100218.91;10362080;28;20029;-82
2022/10/23 19:35:26;;;;;;;1.65;1.55;;;;;;;13.70;100.00;100219.81;10378850;28;20488;-82
2022/10/23 19:40:26;;;;;;;2.45;1.83;;;;;;;13.54;100.00;100227.84;10381082;28;20116;-82
2022/10/23 19:45:27;;;;;;;2.25;1.33;;;;;;;13.42;100.00;100230.53;10380685;28;20038;-82
2022/10/23 19:50:27;;;;;;;12.82;1.67;;;;;;;13.32;100.00;100233.81;10379283;28;20038;-82
2022/10/23 19:55:27;;;;;;;1.58;1.48;;;;;;;13.29;100.00;100238.88;10378525;28;20040;-82
2022/10/23 20:00:28;;;;;;;6.40;2.85;;;;;;;13.22;100.00;100247.94;10378357;28;20385;-82
2022/10/23 20:05:29;;;;;;;9.20;2.83;;;;;;;13.19;100.00;100237.53;10378311;28;20041;-82
2022/10/23 20:10:29;;;;;;;6.03;2.40;;;;;;;13.32;100.00;100254.75;10366088;28;20033;-82
2022/10/23 20:15:29;;;;;;;4.70;2.60;;;;;;;13.28;100.00;100253.56;10381428;28;20037;-82
2022/10/23 20:20:30;;;;;;;7.65;2.60;;;;;;;13.36;100.00;100258.66;10377332;28;20484;-82
2022/10/23 20:25:31;;;;;;;3.70;1.70;;;;;;;13.43;100.00;100264.81;10377915;28;20129;-81
2022/10/23 20:30:31;;;;;;;5.47;1.70;;;;;;;13.51;100.00;100266.38;10377494;28;20033;-82
2022/10/23 20:35:41;;;;;;;37.05;2.97;;;;;;;13.61;100.00;100274.81;10376580;28;20046;-82
2022/10/23 20:40:41;;;;;;;3.60;2.28;;;;;;;13.65;100.00;100273.28;10377735;28;20030;-83
2022/10/23 20:45:41;;;;;;;5.57;2.30;;;;;;;13.87;100.00;100285.28;10376762;28;20045;-83
2022/10/23 20:50:42;;;;;;;8.20;3.45;;;;;;;14.17;100.00;100277.03;10377223;28;20347;-82
2022/10/23 20:55:44;;;;;;;5.22;3.17;;;;;;;14.34;100.00;100265.41;10376717;28;20042;-83
2022/10/23 21:00:44;;;;;;;2.95;2.28;;;;;;;14.48;100.00;100265.97;10376466;28;20041;-83
2022/10/23 21:05:45;;;;;;;4.90;2.78;;;;;;;14.55;100.00;100272.16;10378263;28;20481;-84
2022/10/23 21:10:46;;;;;;;4.65;3.40;;;;;;;14.59;100.00;100279.63;10380644;28;20036;-85
2022/10/23 21:15:46;;;;;;;8.23;3.83;;;;;;;14.64;100.00;100270.72;10379733;28;20470;-86
2022/10/23 21:20:47;;;;;;;6.65;2.70;;;;;;;14.62;100.00;100267.44;10380210;28;20050;-84
2022/10/23 21:25:47;;;;;;;7.43;2.45;;;;;;;14.55;100.00;100261.25;10376545;28;20041;-85
2022/10/23 21:30:48;;;;;;;9.38;3.33;;;;;;;14.40;100.00;100262.56;10395064;28;20034;-85
2022/10/23 21:35:48;;;;;;;3.80;2.80;;;;;;;14.29;100.00;100259.84;10401985;28;20049;-84
2022/10/23 21:40:48;;;;;;;10.98;2.67;;;;;;;14.20;100.00;100264.84;10366922;28;20041;-84
2022/10/23 21:45:49;;;;;;;14.90;3.88;;;;;;;14.10;100.00;100257.25;10388485;28;20030;-83
2022/10/23 21:50:56;;;;;;;4.28;2.75;;;;;;;14.15;100.00;100243.75;10376485;28;20042;-82
2022/10/23 21:55:59;;;;;;;;;;;;;;;14.07;100.00;100244.13;10393563;28;20093;-82
2022/10/23 22:00:59;;;;;;;2.42;2.25;;;;;;;13.94;100.00;100249.78;10409979;28;19914;-82
2022/10/23 22:05:59;;;;;;;3.75;2.10;;;;;;;13.98;100.00;100261.88;10383623;28;20445;-82
2022/10/23 22:11:03;;;;;;;2.55;2.25;;;;;;;14.08;100.00;100256.66;10383413;28;20042;-82
2022/10/23 22:16:04;;;;;;;3.83;2.40;;;;;;;14.30;100.00;100258.78;10384198;28;20072;-82
2022/10/23 22:21:06;;;;;;;2.92;2.72;;;;;;;14.38;100.00;100236.63;10382608;28;20086;-82
2022/10/23 22:26:14;;;;;;;4.15;2.42;;;;;;;14.47;100.00;100240.66;10382176;28;20540;-82
2022/10/23 22:31:19;;;;;;;3.00;2.03;;;;;;;14.47;100.00;100231.66;10366006;28;20061;-82
2022/10/23 22:36:19;;;;;;;1.60;1.50;;;;;;;14.46;100.00;100247.16;10383632;28;20034;-82
2022/10/23 22:41:20;;;;;;;5.28;2.58;;;;;;;14.50;100.00;100234.72;10387101;28;20036;-82
2022/10/23 22:46:20;;;;;;;8.25;3.05;;;;;;;14.52;100.00;100219.00;10386581;28;20470;-82
2022/10/23 22:51:22;;;;;;;2.85;1.70;;;;;;;14.57;100.00;100197.28;10369374;28;20121;-82